createdAt,value
2022-07-27T00:01:11.918Z,108.26667
2022-07-27T00:06:13.170Z,108.70588
2022-07-27T00:11:14.110Z,109.14745
2022-07-27T00:16:15.134Z,108.70588
2022-07-27T00:21:16.083Z,109.5914
2022-07-27T00:26:17.064Z,110.03774
2022-07-27T00:31:18.139Z,110.03774
2022-07-27T00:36:19.110Z,110.03774
2022-07-27T00:41:20.049Z,110.93767
2022-07-27T00:46:21.186Z,111.84741
2022-07-27T00:51:22.227Z,111.3913
2022-07-27T00:56:23.339Z,111.3913
2022-07-27T01:01:24.289Z,111.84741
2022-07-27T01:06:27.343Z,112.30601
2022-07-27T01:11:28.413Z,112.30601
2022-07-27T01:16:29.366Z,111.3913
2022-07-27T01:21:34.091Z,111.3913
2022-07-27T01:26:35.170Z,111.3913
2022-07-27T01:31:36.239Z,111.3913
2022-07-27T01:36:37.344Z,110.93767
2022-07-27T01:41:38.265Z,110.93767
2022-07-27T01:46:39.312Z,110.93767
2022-07-27T01:51:40.277Z,110.93767
2022-07-27T01:56:41.248Z,110.93767
2022-07-27T02:01:42.857Z,111.3913
2022-07-27T02:06:43.845Z,110.93767
2022-07-27T02:11:44.747Z,110.48649
2022-07-27T02:16:45.749Z,110.48649
2022-07-27T02:21:46.917Z,110.48649
2022-07-27T02:26:49.558Z,110.48649
2022-07-27T02:31:50.602Z,110.48649
2022-07-27T02:36:51.522Z,110.48649
2022-07-27T02:41:52.435Z,110.03774
2022-07-27T02:46:53.333Z,110.03774
2022-07-27T02:51:54.372Z,110.03774
2022-07-27T02:56:55.339Z,110.03774
2022-07-27T03:01:56.514Z,110.93767
2022-07-27T03:06:57.583Z,110.93767
2022-07-27T03:11:58.528Z,111.3913
2022-07-27T03:16:59.479Z,111.3913
2022-07-27T03:22:00.424Z,110.48649
2022-07-27T03:27:11.297Z,110.93767
2022-07-27T03:32:12.273Z,111.84741
2022-07-27T03:37:13.307Z,111.84741
2022-07-27T03:42:14.340Z,112.76712
2022-07-27T03:47:15.413Z,112.30601
2022-07-27T03:52:18.008Z,111.84741
2022-07-27T03:57:19.043Z,111.84741
2022-07-27T04:02:20.056Z,112.76712
2022-07-27T04:07:21.007Z,111.3913
2022-07-27T04:12:21.904Z,110.48649
2022-07-27T04:17:53.653Z,110.03774
2022-07-27T04:22:57.674Z,109.14745
2022-07-27T04:27:58.594Z,109.14745
2022-07-27T04:32:59.565Z,108.70588
2022-07-27T04:38:00.466Z,108.70588
2022-07-27T04:43:01.408Z,107.82979
2022-07-27T04:48:02.407Z,107.82979
2022-07-27T04:53:03.346Z,107.82979
2022-07-27T04:58:09.436Z,107.39523
2022-07-27T05:03:10.457Z,107.39523
2022-07-27T05:08:12.576Z,106.53298
2022-07-27T05:13:13.668Z,106.96296
2022-07-27T05:18:14.705Z,107.39523
2022-07-27T05:23:15.610Z,108.70588
2022-07-27T05:28:16.629Z,109.14745
2022-07-27T05:33:17.626Z,110.03774
2022-07-27T05:38:18.610Z,110.93767
2022-07-27T05:43:19.527Z,109.5914
2022-07-27T05:48:20.447Z,109.14745
2022-07-27T05:53:21.395Z,108.26667
2022-07-27T05:58:23.226Z,108.26667
2022-07-27T06:03:25.949Z,107.82979
2022-07-27T06:08:26.968Z,107.39523
2022-07-27T06:13:28.539Z,106.96296
2022-07-27T06:18:29.531Z,108.26667
2022-07-27T06:23:30.457Z,107.82979
2022-07-27T06:28:31.401Z,108.26667
2022-07-27T06:33:32.777Z,107.39523
2022-07-27T06:38:33.711Z,109.14745
2022-07-27T06:43:35.777Z,110.03774
2022-07-27T06:48:37.197Z,110.93767
2022-07-27T06:53:43.211Z,111.3913
2022-07-27T06:58:44.169Z,109.14745
2022-07-27T07:03:45.232Z,107.82979
2022-07-27T07:08:46.173Z,111.3913
2022-07-27T07:13:47.123Z,113.69697
2022-07-27T07:18:52.313Z,111.3913
2022-07-27T07:23:53.771Z,110.03774
2022-07-27T07:28:54.661Z,111.3913
2022-07-27T07:33:55.797Z,109.14745
2022-07-27T07:38:56.750Z,114.16575
2022-07-27T07:43:57.939Z,111.84741
2022-07-27T07:48:58.917Z,115.58774
2022-07-27T07:54:00.182Z,114.16575
2022-07-27T07:59:01.185Z,114.16575
2022-07-27T08:04:02.359Z,115.58774
2022-07-27T08:09:03.278Z,114.63712
2022-07-27T08:14:04.439Z,114.16575
2022-07-27T08:19:05.390Z,110.48649
2022-07-27T08:24:06.412Z,114.63712
2022-07-27T08:29:11.380Z,115.11111
2022-07-27T08:34:14.857Z,113.69697
2022-07-27T08:39:41.717Z,114.63712
2022-07-27T08:45:07.174Z,110.93767
2022-07-27T08:50:08.117Z,110.03774
2022-07-27T08:55:09.158Z,108.70588
2022-07-27T09:00:10.075Z,106.96296
2022-07-27T09:05:11.045Z,105.67979
2022-07-27T09:15:12.458Z,108.26667
2022-07-27T09:20:18.014Z,112.76712
2022-07-27T09:25:38.425Z,111.84741
2022-07-27T09:30:53.668Z,115.58774
2022-07-27T09:40:55.145Z,113.23077
2022-07-27T09:45:56.426Z,110.48649
2022-07-27T09:51:02.140Z,115.58774
2022-07-27T09:56:04.341Z,110.03774
2022-07-27T10:01:05.260Z,110.03774
2022-07-27T10:06:06.200Z,111.3913
2022-07-27T10:11:07.345Z,111.3913
2022-07-27T10:16:08.366Z,110.93767
2022-07-27T10:21:09.376Z,108.26667
2022-07-27T10:26:10.356Z,108.70588
2022-07-27T10:31:11.304Z,105.67979
2022-07-27T10:36:16.443Z,107.39523
2022-07-27T10:41:17.868Z,110.48649
2022-07-27T10:46:18.828Z,113.23077
2022-07-27T10:51:20.073Z,107.39523
2022-07-27T10:56:26.095Z,107.39523
2022-07-27T11:01:27.116Z,110.03774
2022-07-27T11:06:33.422Z,106.53298
2022-07-27T11:11:38.888Z,107.82979
2022-07-27T11:16:54.154Z,109.5914
2022-07-27T11:21:57.896Z,114.16575
2022-07-27T11:26:58.913Z,111.3913
2022-07-27T11:32:00.129Z,109.5914
2022-07-27T11:37:01.228Z,112.76712
2022-07-27T11:42:08.689Z,112.76712
2022-07-27T11:47:13.173Z,115.11111
2022-07-27T11:52:14.088Z,116.06704
2022-07-27T11:57:15.036Z,113.23077
2022-07-27T12:02:16.035Z,111.3913
2022-07-27T12:07:17.338Z,113.69697
2022-07-27T12:12:18.772Z,115.58774
2022-07-27T12:17:19.923Z,114.16575
2022-07-27T12:27:21.529Z,115.11111
2022-07-27T12:32:22.431Z,109.14745
2022-07-27T12:37:23.325Z,109.14745
2022-07-27T12:42:24.292Z,109.14745
2022-07-27T12:47:27.825Z,107.39523
2022-07-27T12:52:29.128Z,104.83551
2022-07-27T12:57:54.102Z,108.26667
2022-07-27T13:02:56.709Z,106.96296
2022-07-27T13:07:57.637Z,108.26667
2022-07-27T13:12:58.587Z,111.3913
2022-07-27T13:17:59.500Z,109.5914
2022-07-27T13:23:00.442Z,106.10526
2022-07-27T13:28:01.410Z,105.25654
2022-07-27T13:33:02.336Z,107.39523
2022-07-27T13:38:03.241Z,107.39523
2022-07-27T13:43:09.295Z,105.67979
2022-07-27T13:48:13.372Z,109.14745
2022-07-27T13:53:15.310Z,103.17313
2022-07-27T13:58:16.671Z,107.82979
2022-07-27T14:03:17.592Z,105.67979
2022-07-27T14:08:20.345Z,107.82979
2022-07-27T14:13:21.300Z,110.03774
2022-07-27T14:18:22.600Z,111.3913
2022-07-27T14:23:23.544Z,106.96296
2022-07-27T14:28:24.505Z,112.30601
2022-07-27T14:33:26.100Z,109.14745
2022-07-27T14:38:34.331Z,108.70588
2022-07-27T14:43:35.290Z,107.39523
2022-07-27T14:49:04.715Z,106.96296
2022-07-27T14:54:06.969Z,107.39523
2022-07-27T14:59:07.914Z,110.03774
2022-07-27T15:04:08.845Z,108.70588
2022-07-27T15:09:09.965Z,107.82979
2022-07-27T15:14:11.063Z,108.70588
2022-07-27T15:19:12.402Z,107.39523
2022-07-27T15:24:13.546Z,103.58549
2022-07-27T15:29:15.644Z,101.54476
2022-07-27T15:39:17.413Z,102.35476
2022-07-27T15:44:18.368Z,102.35476
2022-07-27T15:49:19.724Z,106.10526
2022-07-27T15:54:20.929Z,106.10526
2022-07-27T15:59:21.869Z,108.26667
2022-07-27T16:04:22.945Z,107.82979
2022-07-27T16:09:23.868Z,107.39523
2022-07-27T16:14:24.845Z,113.23077
2022-07-27T16:19:25.783Z,108.70588
2022-07-27T16:24:26.783Z,110.03774
2022-07-27T16:29:27.699Z,108.26667
2022-07-27T16:34:28.660Z,106.10526
2022-07-27T16:39:29.584Z,107.82979
2022-07-27T16:44:30.535Z,106.96296
2022-07-27T16:49:33.508Z,111.84741
2022-07-27T16:54:39.764Z,110.48649
2022-07-27T16:59:40.905Z,109.14745
2022-07-27T17:04:41.927Z,113.23077
2022-07-27T17:09:42.922Z,111.84741
2022-07-27T17:14:43.854Z,113.23077
2022-07-27T17:19:44.847Z,110.48649
2022-07-27T17:29:47.140Z,112.30601
2022-07-27T17:34:48.143Z,112.76712
2022-07-27T17:39:49.090Z,110.48649
2022-07-27T17:44:50.047Z,108.26667
2022-07-27T17:49:51.080Z,107.39523
2022-07-27T17:54:57.085Z,106.10526
2022-07-27T17:59:58.121Z,107.39523
2022-07-27T18:04:59.064Z,105.25654
2022-07-27T18:10:00.191Z,103.58549
2022-07-27T18:15:01.160Z,102.76289
2022-07-27T18:20:02.108Z,101.54476
2022-07-27T18:26:04.935Z,101.94872
2022-07-27T18:31:05.984Z,101.54476
2022-07-27T18:36:07.673Z,101.54476
2022-07-27T18:41:08.958Z,101.14286
2022-07-27T18:46:10.011Z,102.35476
2022-07-27T18:51:11.059Z,101.94872
2022-07-27T18:56:17.186Z,103.17313
2022-07-27T19:01:19.044Z,104.0
2022-07-27T19:06:20.172Z,103.58549
2022-07-27T19:11:22.644Z,104.0
2022-07-27T19:16:23.891Z,104.0
2022-07-27T19:21:24.904Z,104.41667
2022-07-27T19:26:25.893Z,104.83551
2022-07-27T19:31:26.844Z,105.67979
2022-07-27T19:36:27.773Z,105.25654
2022-07-27T19:41:28.704Z,105.67979
2022-07-27T19:46:29.786Z,106.53298
2022-07-27T19:51:30.851Z,106.96296
2022-07-27T19:56:37.050Z,106.53298
2022-07-27T20:01:38.426Z,106.10526
2022-07-27T20:06:39.442Z,106.96296
2022-07-27T20:11:40.370Z,106.96296
2022-07-27T20:16:41.351Z,106.96296
2022-07-27T20:21:42.780Z,106.53298
2022-07-27T20:26:48.628Z,106.96296
2022-07-27T20:31:50.104Z,106.96296
2022-07-27T20:36:53.515Z,106.53298
2022-07-27T20:41:54.444Z,106.53298
2022-07-27T20:46:55.388Z,106.96296
2022-07-27T20:51:56.307Z,106.53298
2022-07-27T20:56:57.474Z,106.53298
2022-07-27T21:01:58.434Z,106.96296
2022-07-27T21:07:00.022Z,106.10526
2022-07-27T21:12:01.034Z,106.10526
2022-07-27T21:17:02.427Z,106.96296
2022-07-27T21:22:03.404Z,107.39523
2022-07-27T21:27:04.947Z,107.39523
2022-07-27T21:32:05.977Z,108.26667
2022-07-27T21:37:06.882Z,108.26667
2022-07-27T21:42:07.870Z,108.70588
2022-07-27T21:47:13.764Z,108.70588
2022-07-27T21:52:15.641Z,108.70588
2022-07-27T21:57:16.582Z,108.70588
2022-07-27T22:02:17.478Z,108.70588
2022-07-27T22:07:19.327Z,108.26667
2022-07-27T22:12:20.606Z,108.70588
2022-07-27T22:17:21.528Z,108.70588
2022-07-27T22:22:22.448Z,109.14745
2022-07-27T22:27:23.518Z,108.70588
2022-07-27T22:32:24.567Z,108.70588
2022-07-27T22:42:25.980Z,109.14745
2022-07-27T22:47:26.991Z,109.14745
2022-07-27T22:52:27.912Z,109.14745
2022-07-27T22:57:28.843Z,109.5914
2022-07-27T23:02:29.753Z,109.5914
2022-07-27T23:07:33.251Z,109.5914
2022-07-27T23:12:34.637Z,108.70588
2022-07-27T23:17:35.593Z,109.14745
2022-07-27T23:22:41.659Z,108.70588
2022-07-27T23:27:42.976Z,108.26667
2022-07-27T23:32:43.903Z,108.70588
2022-07-27T23:37:44.802Z,108.70588
2022-07-27T23:42:45.798Z,108.70588
2022-07-27T23:47:46.712Z,108.26667
2022-07-27T23:52:48.310Z,108.70588
